sensor_id;sensor_type;location;lat;lon;timestamp;pressure;altitude;pressure_sealevel;temperature;humidity
70437;BME280;57877;39.750;-104.894;2024-02-16T00:02:07;83186.21;;;6.98;32.58
70437;BME280;57877;39.750;-104.894;2024-02-16T00:04:32;83190.38;;;7.63;32.37
70437;BME280;57877;39.750;-104.894;2024-02-16T00:06:57;83189.68;;;6.96;33.08
70437;BME280;57877;39.750;-104.894;2024-02-16T00:09:22;83197.06;;;7.46;32.67
70437;BME280;57877;39.750;-104.894;2024-02-16T00:11:48;83185.52;;;6.59;33.40
70437;BME280;57877;39.750;-104.894;2024-02-16T00:14:13;83189.07;;;5.41;35.65
70437;BME280;57877;39.750;-104.894;2024-02-16T00:16:38;83191.04;;;4.76;37.01
70437;BME280;57877;39.750;-104.894;2024-02-16T00:19:03;83191.49;;;5.98;35.29
70437;BME280;57877;39.750;-104.894;2024-02-16T00:21:28;83193.89;;;6.11;35.17
70437;BME280;57877;39.750;-104.894;2024-02-16T00:23:54;83195.77;;;4.61;37.78
70437;BME280;57877;39.750;-104.894;2024-02-16T00:26:18;83201.88;;;4.70;37.98
70437;BME280;57877;39.750;-104.894;2024-02-16T00:28:43;83197.39;;;5.23;37.05
70437;BME280;57877;39.750;-104.894;2024-02-16T00:31:08;83192.07;;;3.98;39.04
70437;BME280;57877;39.750;-104.894;2024-02-16T00:33:34;83192.11;;;4.48;38.35
70437;BME280;57877;39.750;-104.894;2024-02-16T00:35:59;83195.30;;;4.49;38.20
70437;BME280;57877;39.750;-104.894;2024-02-16T00:38:24;83200.95;;;4.87;37.64
70437;BME280;57877;39.750;-104.894;2024-02-16T00:40:50;83208.77;;;4.21;38.61
70437;BME280;57877;39.750;-104.894;2024-02-16T00:43:16;83226.09;;;3.99;39.44
70437;BME280;57877;39.750;-104.894;2024-02-16T00:45:42;83230.17;;;5.01;37.56
70437;BME280;57877;39.750;-104.894;2024-02-16T00:48:08;83235.87;;;5.65;36.56
70437;BME280;57877;39.750;-104.894;2024-02-16T00:50:34;83241.29;;;5.41;36.56
70437;BME280;57877;39.750;-104.894;2024-02-16T00:53:00;83237.92;;;4.57;37.43
70437;BME280;57877;39.750;-104.894;2024-02-16T00:55:25;83250.60;;;4.06;38.05
70437;BME280;57877;39.750;-104.894;2024-02-16T00:57:50;83256.03;;;4.44;37.73
70437;BME280;57877;39.750;-104.894;2024-02-16T01:00:16;83263.21;;;4.92;36.55
70437;BME280;57877;39.750;-104.894;2024-02-16T01:02:41;83256.08;;;4.87;36.29
70437;BME280;57877;39.750;-104.894;2024-02-16T01:05:06;83262.74;;;5.17;35.84
70437;BME280;57877;39.750;-104.894;2024-02-16T01:07:30;83272.28;;;5.21;35.90
70437;BME280;57877;39.750;-104.894;2024-02-16T01:09:56;83274.37;;;5.00;35.68
70437;BME280;57877;39.750;-104.894;2024-02-16T01:12:21;83277.82;;;4.94;36.10
70437;BME280;57877;39.750;-104.894;2024-02-16T01:14:47;83288.28;;;5.04;36.04
70437;BME280;57877;39.750;-104.894;2024-02-16T01:17:14;83297.01;;;4.40;36.79
70437;BME280;57877;39.750;-104.894;2024-02-16T01:19:38;83308.75;;;4.24;37.53
70437;BME280;57877;39.750;-104.894;2024-02-16T01:22:04;83311.87;;;3.82;39.05
70437;BME280;57877;39.750;-104.894;2024-02-16T01:24:30;83316.37;;;3.92;38.69
70437;BME280;57877;39.750;-104.894;2024-02-16T01:26:56;83321.61;;;4.32;38.47
70437;BME280;57877;39.750;-104.894;2024-02-16T01:29:21;83324.64;;;4.24;39.15
70437;BME280;57877;39.750;-104.894;2024-02-16T01:31:46;83325.39;;;4.57;38.15
70437;BME280;57877;39.750;-104.894;2024-02-16T01:34:11;83326.54;;;4.96;37.77
70437;BME280;57877;39.750;-104.894;2024-02-16T01:36:36;83325.08;;;4.66;37.44
70437;BME280;57877;39.750;-104.894;2024-02-16T01:39:01;83327.72;;;4.31;37.84
70437;BME280;57877;39.750;-104.894;2024-02-16T01:41:26;83331.34;;;4.49;37.68
70437;BME280;57877;39.750;-104.894;2024-02-16T01:43:53;83331.70;;;4.98;37.25
70437;BME280;57877;39.750;-104.894;2024-02-16T01:46:17;83336.97;;;4.76;37.43
70437;BME280;57877;39.750;-104.894;2024-02-16T01:48:43;83338.21;;;4.95;36.91
70437;BME280;57877;39.750;-104.894;2024-02-16T01:51:09;83340.83;;;5.25;36.78
70437;BME280;57877;39.750;-104.894;2024-02-16T01:53:33;83336.60;;;5.02;36.74
70437;BME280;57877;39.750;-104.894;2024-02-16T01:55:59;83343.28;;;4.90;36.85
70437;BME280;57877;39.750;-104.894;2024-02-16T01:58:24;83359.83;;;5.02;36.75
70437;BME280;57877;39.750;-104.894;2024-02-16T02:00:49;83362.36;;;4.97;36.90
70437;BME280;57877;39.750;-104.894;2024-02-16T02:03:14;83366.89;;;4.95;36.71
70437;BME280;57877;39.750;-104.894;2024-02-16T02:05:44;83371.71;;;5.24;36.70
70437;BME280;57877;39.750;-104.894;2024-02-16T02:08:09;83389.90;;;4.67;36.71
70437;BME280;57877;39.750;-104.894;2024-02-16T02:10:31;83394.35;;;4.96;36.51
70437;BME280;57877;39.750;-104.894;2024-02-16T02:12:56;83392.48;;;4.88;36.79
70437;BME280;57877;39.750;-104.894;2024-02-16T02:15:21;83391.40;;;4.68;36.76
70437;BME280;57877;39.750;-104.894;2024-02-16T02:17:46;83389.20;;;4.52;36.82
70437;BME280;57877;39.750;-104.894;2024-02-16T02:20:11;83396.55;;;4.91;36.87
70437;BME280;57877;39.750;-104.894;2024-02-16T02:22:37;83395.64;;;4.72;36.77
70437;BME280;57877;39.750;-104.894;2024-02-16T02:25:01;83395.77;;;4.82;36.80
70437;BME280;57877;39.750;-104.894;2024-02-16T02:27:27;83401.37;;;4.82;36.76
70437;BME280;57877;39.750;-104.894;2024-02-16T02:29:52;83397.68;;;4.38;37.17
70437;BME280;57877;39.750;-104.894;2024-02-16T02:32:18;83404.27;;;4.85;37.07
70437;BME280;57877;39.750;-104.894;2024-02-16T02:34:43;83407.42;;;4.67;37.26
70437;BME280;57877;39.750;-104.894;2024-02-16T02:37:08;83415.30;;;4.58;37.02
70437;BME280;57877;39.750;-104.894;2024-02-16T02:39:34;83419.32;;;4.20;37.30
70437;BME280;57877;39.750;-104.894;2024-02-16T02:41:58;83419.64;;;4.43;37.71
70437;BME280;57877;39.750;-104.894;2024-02-16T02:44:24;83412.33;;;4.62;37.32
70437;BME280;57877;39.750;-104.894;2024-02-16T02:46:48;83415.23;;;4.47;38.06
70437;BME280;57877;39.750;-104.894;2024-02-16T02:49:14;83416.30;;;4.43;37.50
70437;BME280;57877;39.750;-104.894;2024-02-16T02:51:39;83417.82;;;4.11;38.03
70437;BME280;57877;39.750;-104.894;2024-02-16T02:54:05;83419.99;;;3.82;37.84
70437;BME280;57877;39.750;-104.894;2024-02-16T02:56:29;83429.92;;;3.91;38.72
70437;BME280;57877;39.750;-104.894;2024-02-16T02:58:54;83436.74;;;3.78;38.75
70437;BME280;57877;39.750;-104.894;2024-02-16T03:01:20;83434.05;;;4.27;38.52
70437;BME280;57877;39.750;-104.894;2024-02-16T03:03:46;83433.27;;;4.09;38.40
70437;BME280;57877;39.750;-104.894;2024-02-16T03:06:13;83438.89;;;3.84;38.33
70437;BME280;57877;39.750;-104.894;2024-02-16T03:08:38;83441.24;;;3.77;39.10
70437;BME280;57877;39.750;-104.894;2024-02-16T03:11:04;83456.50;;;3.76;39.42
70437;BME280;57877;39.750;-104.894;2024-02-16T03:13:30;83461.78;;;2.85;40.66
70437;BME280;57877;39.750;-104.894;2024-02-16T03:15:56;83465.90;;;3.60;40.11
70437;BME280;57877;39.750;-104.894;2024-02-16T03:18:22;83471.95;;;3.59;40.49
70437;BME280;57877;39.750;-104.894;2024-02-16T03:20:47;83467.93;;;3.45;40.73
70437;BME280;57877;39.750;-104.894;2024-02-16T03:23:12;83464.30;;;3.65;40.30
70437;BME280;57877;39.750;-104.894;2024-02-16T03:25:37;83456.96;;;3.62;39.92
70437;BME280;57877;39.750;-104.894;2024-02-16T03:28:02;83454.85;;;3.19;40.66
70437;BME280;57877;39.750;-104.894;2024-02-16T03:30:27;83455.48;;;3.60;39.99
70437;BME280;57877;39.750;-104.894;2024-02-16T03:32:52;83458.17;;;3.57;39.37
70437;BME280;57877;39.750;-104.894;2024-02-16T03:35:17;83464.04;;;3.93;38.93
70437;BME280;57877;39.750;-104.894;2024-02-16T03:37:42;83460.10;;;3.96;38.80
70437;BME280;57877;39.750;-104.894;2024-02-16T03:40:08;83460.65;;;3.96;38.15
70437;BME280;57877;39.750;-104.894;2024-02-16T03:42:32;83465.58;;;4.46;37.56
70437;BME280;57877;39.750;-104.894;2024-02-16T03:44:57;83465.41;;;3.62;37.76
70437;BME280;57877;39.750;-104.894;2024-02-16T03:47:22;83463.64;;;3.83;37.83
70437;BME280;57877;39.750;-104.894;2024-02-16T03:49:47;83459.90;;;3.44;38.33
70437;BME280;57877;39.750;-104.894;2024-02-16T03:52:12;83463.25;;;3.29;37.95
70437;BME280;57877;39.750;-104.894;2024-02-16T03:54:37;83470.07;;;3.84;37.43
70437;BME280;57877;39.750;-104.894;2024-02-16T03:57:03;83470.47;;;3.88;37.45
70437;BME280;57877;39.750;-104.894;2024-02-16T03:59:27;83475.61;;;4.06;37.05
70437;BME280;57877;39.750;-104.894;2024-02-16T04:01:52;83478.09;;;3.85;37.15
70437;BME280;57877;39.750;-104.894;2024-02-16T04:04:17;83479.23;;;3.98;37.37
70437;BME280;57877;39.750;-104.894;2024-02-16T04:06:43;83478.55;;;3.83;37.18
70437;BME280;57877;39.750;-104.894;2024-02-16T04:09:09;83478.66;;;3.92;37.69
70437;BME280;57877;39.750;-104.894;2024-02-16T04:11:35;83472.76;;;3.39;38.19
70437;BME280;57877;39.750;-104.894;2024-02-16T04:14:00;83476.32;;;3.81;38.11
70437;BME280;57877;39.750;-104.894;2024-02-16T04:16:26;83490.20;;;3.51;38.32
70437;BME280;57877;39.750;-104.894;2024-02-16T04:18:52;83499.18;;;3.12;38.58
70437;BME280;57877;39.750;-104.894;2024-02-16T04:21:18;83508.53;;;3.77;37.78
70437;BME280;57877;39.750;-104.894;2024-02-16T04:23:44;83514.16;;;3.88;37.86
70437;BME280;57877;39.750;-104.894;2024-02-16T04:26:09;83529.26;;;3.64;37.63
70437;BME280;57877;39.750;-104.894;2024-02-16T04:28:34;83535.95;;;4.14;37.58
70437;BME280;57877;39.750;-104.894;2024-02-16T04:30:59;83541.96;;;3.67;37.51
70437;BME280;57877;39.750;-104.894;2024-02-16T04:33:24;83544.20;;;3.60;37.50
70437;BME280;57877;39.750;-104.894;2024-02-16T04:35:50;83546.12;;;3.77;37.53
70437;BME280;57877;39.750;-104.894;2024-02-16T04:38:15;83549.49;;;3.82;37.91
70437;BME280;57877;39.750;-104.894;2024-02-16T04:40:41;83556.06;;;3.55;37.83
70437;BME280;57877;39.750;-104.894;2024-02-16T04:43:07;83562.08;;;3.69;37.93
70437;BME280;57877;39.750;-104.894;2024-02-16T04:45:33;83565.41;;;3.81;37.73
70437;BME280;57877;39.750;-104.894;2024-02-16T04:48:03;83563.50;;;3.58;37.72
70437;BME280;57877;39.750;-104.894;2024-02-16T04:50:24;83563.73;;;3.56;37.70
70437;BME280;57877;39.750;-104.894;2024-02-16T04:52:49;83572.09;;;3.81;37.70
70437;BME280;57877;39.750;-104.894;2024-02-16T04:55:15;83581.48;;;3.32;37.79
70437;BME280;57877;39.750;-104.894;2024-02-16T04:57:41;83582.42;;;3.51;37.76
70437;BME280;57877;39.750;-104.894;2024-02-16T05:00:08;83590.14;;;3.60;37.79
70437;BME280;57877;39.750;-104.894;2024-02-16T05:02:33;83594.66;;;3.68;37.85
70437;BME280;57877;39.750;-104.894;2024-02-16T05:04:58;83603.25;;;3.76;37.79
70437;BME280;57877;39.750;-104.894;2024-02-16T05:07:23;83607.40;;;3.77;37.87
70437;BME280;57877;39.750;-104.894;2024-02-16T05:09:48;83619.69;;;3.81;37.85
70437;BME280;57877;39.750;-104.894;2024-02-16T05:12:13;83628.60;;;4.09;37.90
70437;BME280;57877;39.750;-104.894;2024-02-16T05:14:38;83634.00;;;3.66;37.88
70437;BME280;57877;39.750;-104.894;2024-02-16T05:17:03;83632.87;;;3.43;37.69
70437;BME280;57877;39.750;-104.894;2024-02-16T05:19:32;83632.80;;;3.34;38.11
70437;BME280;57877;39.750;-104.894;2024-02-16T05:21:55;83634.01;;;3.60;38.84
70437;BME280;57877;39.750;-104.894;2024-02-16T05:24:21;83635.66;;;3.25;39.08
70437;BME280;57877;39.750;-104.894;2024-02-16T05:26:47;83636.56;;;2.87;39.90
70437;BME280;57877;39.750;-104.894;2024-02-16T05:29:12;83639.63;;;2.45;40.84
70437;BME280;57877;39.750;-104.894;2024-02-16T05:31:38;83645.34;;;2.75;40.96
70437;BME280;57877;39.750;-104.894;2024-02-16T05:34:03;83641.97;;;2.75;41.36
70437;BME280;57877;39.750;-104.894;2024-02-16T05:36:28;83636.92;;;1.51;42.20
70437;BME280;57877;39.750;-104.894;2024-02-16T05:38:54;83634.20;;;2.22;42.16
70437;BME280;57877;39.750;-104.894;2024-02-16T05:41:19;83640.61;;;2.76;41.94
70437;BME280;57877;39.750;-104.894;2024-02-16T05:43:45;83648.77;;;2.72;41.85
70437;BME280;57877;39.750;-104.894;2024-02-16T05:46:13;83651.66;;;2.81;41.80
70437;BME280;57877;39.750;-104.894;2024-02-16T05:48:36;83657.03;;;2.42;42.24
70437;BME280;57877;39.750;-104.894;2024-02-16T05:51:01;83662.96;;;2.54;42.56
70437;BME280;57877;39.750;-104.894;2024-02-16T05:53:28;83675.73;;;2.36;43.49
70437;BME280;57877;39.750;-104.894;2024-02-16T05:55:53;83681.08;;;1.94;44.05
70437;BME280;57877;39.750;-104.894;2024-02-16T05:58:18;83684.41;;;1.72;44.99
70437;BME280;57877;39.750;-104.894;2024-02-16T06:00:43;83690.82;;;1.94;45.51
70437;BME280;57877;39.750;-104.894;2024-02-16T06:03:09;83703.74;;;1.13;47.56
70437;BME280;57877;39.750;-104.894;2024-02-16T06:05:35;83699.66;;;0.39;50.80
70437;BME280;57877;39.750;-104.894;2024-02-16T06:08:01;83700.38;;;0.62;52.37
70437;BME280;57877;39.750;-104.894;2024-02-16T06:10:26;83704.67;;;0.53;53.16
70437;BME280;57877;39.750;-104.894;2024-02-16T06:12:51;83713.37;;;-0.10;54.96
70437;BME280;57877;39.750;-104.894;2024-02-16T06:15:17;83714.34;;;-0.37;55.50
70437;BME280;57877;39.750;-104.894;2024-02-16T06:17:42;83712.70;;;0.42;53.03
70437;BME280;57877;39.750;-104.894;2024-02-16T06:20:08;83722.94;;;-0.18;54.45
70437;BME280;57877;39.750;-104.894;2024-02-16T06:22:32;83732.30;;;-0.76;56.90
70437;BME280;57877;39.750;-104.894;2024-02-16T06:24:57;83733.57;;;-0.92;57.11
70437;BME280;57877;39.750;-104.894;2024-02-16T06:27:22;83740.62;;;-0.08;54.42
70437;BME280;57877;39.750;-104.894;2024-02-16T06:29:47;83742.08;;;-0.92;56.43
70437;BME280;57877;39.750;-104.894;2024-02-16T06:32:12;83739.02;;;-0.37;53.98
70437;BME280;57877;39.750;-104.894;2024-02-16T06:34:37;83743.80;;;-0.37;54.10
70437;BME280;57877;39.750;-104.894;2024-02-16T06:37:02;83753.19;;;0.41;51.75
70437;BME280;57877;39.750;-104.894;2024-02-16T06:39:27;83758.07;;;-0.85;53.44
70437;BME280;57877;39.750;-104.894;2024-02-16T06:41:53;83754.76;;;-0.25;52.47
70437;BME280;57877;39.750;-104.894;2024-02-16T06:44:18;83758.13;;;0.26;52.40
70437;BME280;57877;39.750;-104.894;2024-02-16T06:46:43;83757.37;;;-0.17;52.47
70437;BME280;57877;39.750;-104.894;2024-02-16T06:49:08;83758.91;;;0.30;51.52
70437;BME280;57877;39.750;-104.894;2024-02-16T06:51:33;83758.62;;;0.27;50.81
70437;BME280;57877;39.750;-104.894;2024-02-16T06:53:58;83760.69;;;-0.08;50.83
70437;BME280;57877;39.750;-104.894;2024-02-16T06:56:23;83763.73;;;-0.55;51.09
70437;BME280;57877;39.750;-104.894;2024-02-16T06:58:48;83771.76;;;-0.56;50.76
70437;BME280;57877;39.750;-104.894;2024-02-16T07:01:14;83777.48;;;-0.51;50.61
70437;BME280;57877;39.750;-104.894;2024-02-16T07:03:38;83779.45;;;-0.98;51.14
70437;BME280;57877;39.750;-104.894;2024-02-16T07:06:04;83787.26;;;-1.51;53.20
70437;BME280;57877;39.750;-104.894;2024-02-16T07:08:29;83792.23;;;-1.46;52.27
70437;BME280;57877;39.750;-104.894;2024-02-16T07:10:53;83797.91;;;-0.68;51.25
70437;BME280;57877;39.750;-104.894;2024-02-16T07:13:19;83800.38;;;-1.42;53.36
70437;BME280;57877;39.750;-104.894;2024-02-16T07:15:44;83806.55;;;-1.01;51.26
70437;BME280;57877;39.750;-104.894;2024-02-16T07:18:09;83809.25;;;-0.98;51.26
70437;BME280;57877;39.750;-104.894;2024-02-16T07:20:34;83807.09;;;-2.43;54.57
70437;BME280;57877;39.750;-104.894;2024-02-16T07:22:59;83800.24;;;-1.58;52.66
70437;BME280;57877;39.750;-104.894;2024-02-16T07:25:24;83808.79;;;-2.05;53.53
70437;BME280;57877;39.750;-104.894;2024-02-16T07:27:49;83809.89;;;-1.89;52.71
70437;BME280;57877;39.750;-104.894;2024-02-16T07:30:14;83808.68;;;-2.28;52.58
70437;BME280;57877;39.750;-104.894;2024-02-16T07:32:39;83809.57;;;-2.40;53.67
70437;BME280;57877;39.750;-104.894;2024-02-16T07:35:05;83814.24;;;-2.45;53.71
70437;BME280;57877;39.750;-104.894;2024-02-16T07:37:29;83811.79;;;-3.21;56.29
70437;BME280;57877;39.750;-104.894;2024-02-16T07:39:54;83819.94;;;-3.10;56.15
70437;BME280;57877;39.750;-104.894;2024-02-16T07:42:19;83824.33;;;-2.84;56.72
70437;BME280;57877;39.750;-104.894;2024-02-16T07:44:45;83827.06;;;-2.53;54.87
70437;BME280;57877;39.750;-104.894;2024-02-16T07:47:10;83824.37;;;-2.26;53.21
70437;BME280;57877;39.750;-104.894;2024-02-16T07:49:38;83833.10;;;-2.52;54.41
70437;BME280;57877;39.750;-104.894;2024-02-16T07:52:00;83829.15;;;-3.20;55.28
70437;BME280;57877;39.750;-104.894;2024-02-16T07:54:25;83838.64;;;-3.55;55.43
70437;BME280;57877;39.750;-104.894;2024-02-16T07:56:50;83835.05;;;-2.14;52.11
70437;BME280;57877;39.750;-104.894;2024-02-16T07:59:15;83828.99;;;-2.99;53.53
70437;BME280;57877;39.750;-104.894;2024-02-16T08:01:40;83828.28;;;-2.85;51.45
70437;BME280;57877;39.750;-104.894;2024-02-16T08:04:05;83829.67;;;-3.37;52.80
70437;BME280;57877;39.750;-104.894;2024-02-16T08:06:30;83823.34;;;-3.86;54.44
70437;BME280;57877;39.750;-104.894;2024-02-16T08:08:55;83827.42;;;-3.99;55.54
70437;BME280;57877;39.750;-104.894;2024-02-16T08:11:22;83832.60;;;-3.70;54.40
70437;BME280;57877;39.750;-104.894;2024-02-16T08:13:45;83841.95;;;-3.03;52.70
70437;BME280;57877;39.750;-104.894;2024-02-16T08:16:10;83848.88;;;-2.96;52.33
70437;BME280;57877;39.750;-104.894;2024-02-16T08:18:36;83857.09;;;-2.73;51.69
70437;BME280;57877;39.750;-104.894;2024-02-16T08:21:01;83855.24;;;-2.74;51.16
70437;BME280;57877;39.750;-104.894;2024-02-16T08:23:26;83849.28;;;-4.13;53.35
70437;BME280;57877;39.750;-104.894;2024-02-16T08:25:51;83840.68;;;-3.98;54.13
70437;BME280;57877;39.750;-104.894;2024-02-16T08:28:16;83842.87;;;-3.42;52.60
70437;BME280;57877;39.750;-104.894;2024-02-16T08:30:41;83856.64;;;-2.89;52.29
70437;BME280;57877;39.750;-104.894;2024-02-16T08:33:06;83865.98;;;-3.14;51.75
70437;BME280;57877;39.750;-104.894;2024-02-16T08:35:31;83855.40;;;-3.33;52.80
70437;BME280;57877;39.750;-104.894;2024-02-16T08:37:56;83853.56;;;-3.84;52.91
70437;BME280;57877;39.750;-104.894;2024-02-16T08:40:21;83866.84;;;-2.93;52.54
70437;BME280;57877;39.750;-104.894;2024-02-16T08:42:46;83866.42;;;-3.42;53.14
70437;BME280;57877;39.750;-104.894;2024-02-16T08:45:11;83872.84;;;-3.31;52.51
70437;BME280;57877;39.750;-104.894;2024-02-16T08:47:36;83870.48;;;-3.66;52.93
70437;BME280;57877;39.750;-104.894;2024-02-16T08:50:02;83868.33;;;-3.75;54.70
70437;BME280;57877;39.750;-104.894;2024-02-16T08:52:27;83879.15;;;-3.47;54.57
70437;BME280;57877;39.750;-104.894;2024-02-16T08:54:52;83878.71;;;-3.31;53.29
70437;BME280;57877;39.750;-104.894;2024-02-16T08:57:17;83874.99;;;-2.76;52.08
70437;BME280;57877;39.750;-104.894;2024-02-16T08:59:42;83875.31;;;-2.62;51.42
70437;BME280;57877;39.750;-104.894;2024-02-16T09:02:07;83887.63;;;-2.57;51.33
70437;BME280;57877;39.750;-104.894;2024-02-16T09:04:32;83896.80;;;-3.03;51.54
70437;BME280;57877;39.750;-104.894;2024-02-16T09:06:57;83885.89;;;-2.89;51.82
70437;BME280;57877;39.750;-104.894;2024-02-16T09:09:22;83880.20;;;-2.86;50.95
70437;BME280;57877;39.750;-104.894;2024-02-16T09:11:47;83876.97;;;-1.90;50.19
70437;BME280;57877;39.750;-104.894;2024-02-16T09:14:12;83874.74;;;-2.34;50.89
70437;BME280;57877;39.750;-104.894;2024-02-16T09:16:37;83881.54;;;-2.39;50.34
70437;BME280;57877;39.750;-104.894;2024-02-16T09:19:03;83888.24;;;-2.24;49.50
70437;BME280;57877;39.750;-104.894;2024-02-16T09:21:28;83886.65;;;-2.19;49.73
70437;BME280;57877;39.750;-104.894;2024-02-16T09:23:53;83883.58;;;-2.36;50.43
70437;BME280;57877;39.750;-104.894;2024-02-16T09:26:18;83883.73;;;-2.90;50.62
70437;BME280;57877;39.750;-104.894;2024-02-16T09:28:43;83878.95;;;-2.70;50.48
70437;BME280;57877;39.750;-104.894;2024-02-16T09:31:08;83872.91;;;-1.79;48.80
70437;BME280;57877;39.750;-104.894;2024-02-16T09:33:33;83877.78;;;-1.86;48.95
70437;BME280;57877;39.750;-104.894;2024-02-16T09:35:58;83883.06;;;-3.02;49.71
70437;BME280;57877;39.750;-104.894;2024-02-16T09:38:23;83889.31;;;-2.09;49.57
70437;BME280;57877;39.750;-104.894;2024-02-16T09:40:49;83886.84;;;-2.23;49.95
70437;BME280;57877;39.750;-104.894;2024-02-16T09:43:23;83884.77;;;-2.78;50.90
70437;BME280;57877;39.750;-104.894;2024-02-16T09:45:39;83880.04;;;-2.60;50.45
70437;BME280;57877;39.750;-104.894;2024-02-16T09:48:08;83884.73;;;-2.82;51.03
70437;BME280;57877;39.750;-104.894;2024-02-16T09:50:29;83884.17;;;-2.70;50.45
70437;BME280;57877;39.750;-104.894;2024-02-16T09:53:00;83879.02;;;-4.44;54.01
70437;BME280;57877;39.750;-104.894;2024-02-16T09:55:19;83874.50;;;-3.21;53.05
70437;BME280;57877;39.750;-104.894;2024-02-16T09:57:44;83878.00;;;-3.84;53.85
70437;BME280;57877;39.750;-104.894;2024-02-16T10:00:10;83877.78;;;-3.21;52.28
70437;BME280;57877;39.750;-104.894;2024-02-16T10:02:40;83880.33;;;-3.33;52.47
70437;BME280;57877;39.750;-104.894;2024-02-16T10:05:00;83882.78;;;-2.67;50.98
70437;BME280;57877;39.750;-104.894;2024-02-16T10:07:31;83879.62;;;-2.20;49.64
70437;BME280;57877;39.750;-104.894;2024-02-16T10:09:50;83877.49;;;-1.71;48.95
70437;BME280;57877;39.750;-104.894;2024-02-16T10:12:19;83873.06;;;-1.49;48.56
70437;BME280;57877;39.750;-104.894;2024-02-16T10:14:40;83873.31;;;-2.27;49.58
70437;BME280;57877;39.750;-104.894;2024-02-16T10:17:06;83873.23;;;-3.63;51.36
70437;BME280;57877;39.750;-104.894;2024-02-16T10:19:30;83878.84;;;-2.56;50.93
70437;BME280;57877;39.750;-104.894;2024-02-16T10:24:22;83874.67;;;-2.46;50.34
70437;BME280;57877;39.750;-104.894;2024-02-16T10:26:45;83871.67;;;-2.75;49.97
70437;BME280;57877;39.750;-104.894;2024-02-16T10:29:11;83866.04;;;-2.58;50.15
70437;BME280;57877;39.750;-104.894;2024-02-16T10:31:36;83856.54;;;-2.54;50.09
70437;BME280;57877;39.750;-104.894;2024-02-16T10:34:02;83853.18;;;-2.26;50.57
70437;BME280;57877;39.750;-104.894;2024-02-16T10:36:26;83853.97;;;-2.34;49.23
70437;BME280;57877;39.750;-104.894;2024-02-16T10:38:52;83853.80;;;-2.10;49.40
70437;BME280;57877;39.750;-104.894;2024-02-16T10:41:17;83855.05;;;-1.99;49.28
70437;BME280;57877;39.750;-104.894;2024-02-16T10:43:42;83854.83;;;-2.04;48.86
70437;BME280;57877;39.750;-104.894;2024-02-16T10:46:07;83860.61;;;-3.79;51.54
70437;BME280;57877;39.750;-104.894;2024-02-16T10:48:31;83856.20;;;-2.55;51.01
70437;BME280;57877;39.750;-104.894;2024-02-16T10:50:56;83858.27;;;-2.89;49.50
70437;BME280;57877;39.750;-104.894;2024-02-16T10:53:24;83861.70;;;-2.93;50.43
70437;BME280;57877;39.750;-104.894;2024-02-16T10:55:47;83865.18;;;-2.50;50.93
70437;BME280;57877;39.750;-104.894;2024-02-16T10:58:12;83862.80;;;-2.12;49.81
70437;BME280;57877;39.750;-104.894;2024-02-16T11:00:37;83867.57;;;-2.00;48.92
70437;BME280;57877;39.750;-104.894;2024-02-16T11:03:04;83865.71;;;-1.66;48.19
70437;BME280;57877;39.750;-104.894;2024-02-16T11:05:33;83868.71;;;-1.62;47.95
70437;BME280;57877;39.750;-104.894;2024-02-16T11:07:59;83873.07;;;-1.75;48.03
70437;BME280;57877;39.750;-104.894;2024-02-16T11:10:17;83870.49;;;-1.46;47.71
70437;BME280;57877;39.750;-104.894;2024-02-16T11:12:45;83867.34;;;-1.26;47.46
70437;BME280;57877;39.750;-104.894;2024-02-16T11:15:09;83871.53;;;-1.21;47.45
70437;BME280;57877;39.750;-104.894;2024-02-16T11:17:33;83864.28;;;-1.61;47.71
70437;BME280;57877;39.750;-104.894;2024-02-16T11:20:00;83874.51;;;-1.80;47.95
70437;BME280;57877;39.750;-104.894;2024-02-16T11:22:26;83869.67;;;-2.27;48.76
70437;BME280;57877;39.750;-104.894;2024-02-16T11:24:49;83864.14;;;-2.22;48.43
70437;BME280;57877;39.750;-104.894;2024-02-16T11:27:13;83867.96;;;-2.67;49.85
70437;BME280;57877;39.750;-104.894;2024-02-16T11:29:38;83868.40;;;-1.81;48.94
70437;BME280;57877;39.750;-104.894;2024-02-16T11:32:04;83871.36;;;-1.80;48.56
70437;BME280;57877;39.750;-104.894;2024-02-16T11:34:29;83869.81;;;-2.24;48.79
70437;BME280;57877;39.750;-104.894;2024-02-16T11:36:54;83863.28;;;-1.87;49.22
70437;BME280;57877;39.750;-104.894;2024-02-16T11:39:19;83864.95;;;-2.20;48.52
70437;BME280;57877;39.750;-104.894;2024-02-16T11:41:43;83873.51;;;-1.90;49.57
70437;BME280;57877;39.750;-104.894;2024-02-16T11:44:09;83878.51;;;-2.05;49.60
70437;BME280;57877;39.750;-104.894;2024-02-16T11:46:34;83883.71;;;-1.75;49.13
70437;BME280;57877;39.750;-104.894;2024-02-16T11:49:05;83877.45;;;-2.24;48.08
70437;BME280;57877;39.750;-104.894;2024-02-16T11:51:24;83872.65;;;-1.95;50.55
70437;BME280;57877;39.750;-104.894;2024-02-16T11:53:57;83866.70;;;-1.71;50.37
70437;BME280;57877;39.750;-104.894;2024-02-16T11:56:22;83867.63;;;-2.84;51.35
70437;BME280;57877;39.750;-104.894;2024-02-16T11:58:40;83865.43;;;-2.19;50.24
70437;BME280;57877;39.750;-104.894;2024-02-16T12:01:10;83867.10;;;-1.86;49.41
70437;BME280;57877;39.750;-104.894;2024-02-16T12:03:29;83869.91;;;-1.84;50.26
70437;BME280;57877;39.750;-104.894;2024-02-16T12:05:56;83876.68;;;-2.31;49.63
70437;BME280;57877;39.750;-104.894;2024-02-16T12:08:20;83882.11;;;-2.29;50.09
70437;BME280;57877;39.750;-104.894;2024-02-16T12:10:46;83876.71;;;-1.77;49.47
70437;BME280;57877;39.750;-104.894;2024-02-16T12:13:10;83877.42;;;-1.61;49.54
70437;BME280;57877;39.750;-104.894;2024-02-16T12:15:35;83874.86;;;-2.80;50.91
70437;BME280;57877;39.750;-104.894;2024-02-16T12:18:01;83863.50;;;-2.32;49.55
70437;BME280;57877;39.750;-104.894;2024-02-16T12:20:25;83875.14;;;-2.56;50.73
70437;BME280;57877;39.750;-104.894;2024-02-16T12:22:50;83864.55;;;-1.87;49.98
70437;BME280;57877;39.750;-104.894;2024-02-16T12:25:15;83863.63;;;-2.27;50.24
70437;BME280;57877;39.750;-104.894;2024-02-16T12:27:40;83863.44;;;-1.78;50.01